createdAt,value
2017-09-29T00:00:09.954Z,16.10
2017-09-29T00:02:39.375Z,16.00
2017-09-29T00:05:08.878Z,16.10
2017-09-29T00:07:38.919Z,16.00
2017-09-29T00:10:08.218Z,16.10
2017-09-29T00:12:37.475Z,16.10
2017-09-29T00:15:06.760Z,16.10
2017-09-29T00:17:36.016Z,16.10
2017-09-29T00:20:05.274Z,16.10
2017-09-29T00:22:34.591Z,16.10
2017-09-29T00:25:04.209Z,16.10
2017-09-29T00:27:33.549Z,16.20
2017-09-29T00:30:02.838Z,16.20
2017-09-29T00:32:33.031Z,16.20
2017-09-29T00:35:03.173Z,16.20
2017-09-29T00:37:32.420Z,16.20
2017-09-29T00:40:02.476Z,16.20
2017-09-29T00:42:31.766Z,16.20
2017-09-29T00:45:01.029Z,16.20
2017-09-29T00:47:30.306Z,16.20
2017-09-29T00:49:59.589Z,16.30
2017-09-29T00:52:28.862Z,16.20
2017-09-29T00:54:58.156Z,16.30
2017-09-29T00:57:27.431Z,16.20
2017-09-29T00:59:56.702Z,16.30
2017-09-29T01:02:25.979Z,16.20
2017-09-29T01:04:55.390Z,16.20
2017-09-29T01:07:25.511Z,16.30
2017-09-29T01:09:55.552Z,16.30
2017-09-29T01:12:24.827Z,16.30
2017-09-29T01:14:54.105Z,16.20
2017-09-29T01:17:23.398Z,16.30
2017-09-29T01:19:52.658Z,16.20
2017-09-29T01:22:21.940Z,16.20
2017-09-29T01:24:51.233Z,16.20
2017-09-29T01:27:21.289Z,16.20
2017-09-29T01:29:50.650Z,16.10
2017-09-29T01:32:20.672Z,16.10
2017-09-29T01:34:49.936Z,16.10
2017-09-29T01:37:19.217Z,16.10
2017-09-29T01:39:48.494Z,16.10
2017-09-29T01:42:17.931Z,16.10
2017-09-29T01:44:47.243Z,16.10
2017-09-29T01:47:16.542Z,16.20
2017-09-29T01:49:45.812Z,16.10
2017-09-29T01:52:15.097Z,16.20
2017-09-29T01:54:44.357Z,16.20
2017-09-29T01:57:13.663Z,16.20
2017-09-29T01:59:43.106Z,16.30
2017-09-29T02:02:12.395Z,16.30
2017-09-29T02:04:42.417Z,16.10
2017-09-29T02:07:11.680Z,16.10
2017-09-29T02:09:40.983Z,16.20
2017-09-29T02:12:11.758Z,16.20
2017-09-29T02:14:41.065Z,16.20
2017-09-29T02:17:10.332Z,16.30
2017-09-29T02:19:39.591Z,16.20
2017-09-29T02:22:09.642Z,16.10
2017-09-29T02:24:38.914Z,16.20
2017-09-29T02:27:08.194Z,16.20
2017-09-29T02:29:37.453Z,16.30
2017-09-29T02:32:06.887Z,16.30
2017-09-29T02:34:36.143Z,16.30
2017-09-29T02:37:05.690Z,16.30
2017-09-29T02:39:36.623Z,16.30
2017-09-29T02:42:06.634Z,16.40
2017-09-29T02:44:35.933Z,16.30
2017-09-29T02:47:05.239Z,16.40
2017-09-29T02:49:34.498Z,16.40
2017-09-29T02:52:03.770Z,16.50
2017-09-29T02:54:33.275Z,16.50
2017-09-29T02:57:14.292Z,16.40
2017-09-29T02:59:45.766Z,16.40
2017-09-29T03:02:16.229Z,16.50
2017-09-29T03:04:46.825Z,16.40
2017-09-29T03:07:16.256Z,16.40
2017-09-29T03:09:45.515Z,16.40
2017-09-29T03:12:14.800Z,16.50
2017-09-29T03:14:44.115Z,16.40
2017-09-29T03:17:13.325Z,16.30
2017-09-29T03:19:42.595Z,16.20
2017-09-29T03:22:11.853Z,16.30
2017-09-29T03:24:41.197Z,16.30
2017-09-29T03:27:10.549Z,16.30
2017-09-29T03:29:40.591Z,16.40
2017-09-29T03:32:09.869Z,16.40
2017-09-29T03:34:39.277Z,16.30
2017-09-29T03:37:09.317Z,16.30
2017-09-29T03:39:38.709Z,16.30
2017-09-29T03:42:08.002Z,16.40
2017-09-29T03:44:38.121Z,16.50
2017-09-29T03:47:08.774Z,16.40
2017-09-29T03:49:38.062Z,16.40
2017-09-29T03:52:08.574Z,16.40
2017-09-29T03:54:39.017Z,16.50
2017-09-29T03:57:10.498Z,16.50
2017-09-29T03:59:41.867Z,16.50
2017-09-29T04:02:11.134Z,16.50
2017-09-29T04:04:40.406Z,16.50
2017-09-29T04:07:10.166Z,16.50
2017-09-29T04:09:39.434Z,16.60
2017-09-29T04:12:08.706Z,16.60
2017-09-29T04:14:38.820Z,16.60
2017-09-29T04:17:08.089Z,16.60
2017-09-29T04:19:37.390Z,16.60
2017-09-29T04:22:06.656Z,16.60
2017-09-29T04:24:36.692Z,16.60
2017-09-29T04:27:05.954Z,16.60
2017-09-29T04:29:35.218Z,16.60
2017-09-29T04:32:04.675Z,16.60
2017-09-29T04:34:34.789Z,16.60
2017-09-29T04:37:04.817Z,16.50
2017-09-29T04:39:34.067Z,16.50
2017-09-29T04:42:03.397Z,16.50
2017-09-29T04:44:32.682Z,16.50
2017-09-29T04:47:01.942Z,16.50
2017-09-29T04:49:31.229Z,16.50
2017-09-29T04:52:01.310Z,16.40
2017-09-29T04:54:30.577Z,16.40
2017-09-29T04:56:59.840Z,16.40
2017-09-29T04:59:29.089Z,16.50
2017-09-29T05:01:58.366Z,16.50
2017-09-29T05:04:27.692Z,16.50
2017-09-29T05:06:56.975Z,16.60
2017-09-29T05:09:26.238Z,16.60
2017-09-29T05:11:56.499Z,16.50
2017-09-29T05:14:25.976Z,16.50
2017-09-29T05:16:55.234Z,16.60
2017-09-29T05:19:24.506Z,16.60
2017-09-29T05:21:53.766Z,16.60
2017-09-29T05:24:23.809Z,16.70
2017-09-29T05:26:53.079Z,16.60
2017-09-29T05:29:22.324Z,16.60
2017-09-29T05:31:51.805Z,16.70
2017-09-29T05:34:21.831Z,16.60
2017-09-29T05:36:51.229Z,16.60
2017-09-29T05:39:21.266Z,16.50
2017-09-29T05:41:50.674Z,16.40
2017-09-29T05:44:20.158Z,16.50
2017-09-29T05:46:50.198Z,16.50
2017-09-29T05:49:19.469Z,16.50
2017-09-29T05:51:48.774Z,16.60
2017-09-29T05:54:18.013Z,16.50
2017-09-29T05:56:47.572Z,16.60
2017-09-29T05:59:16.863Z,16.60
2017-09-29T06:01:46.159Z,16.70
2017-09-29T06:04:15.589Z,16.60
2017-09-29T06:06:45.616Z,16.70
2017-09-29T06:09:14.921Z,16.70
2017-09-29T06:11:44.173Z,16.80
2017-09-29T06:14:13.442Z,16.90
2017-09-29T06:16:42.790Z,16.90
2017-09-29T06:19:12.046Z,17.00
2017-09-29T06:21:41.331Z,17.10
2017-09-29T06:24:11.389Z,17.20
2017-09-29T06:26:40.641Z,17.20
2017-09-29T06:29:09.921Z,17.30
2017-09-29T06:31:39.191Z,17.30
2017-09-29T06:34:08.590Z,17.40
2017-09-29T06:36:37.877Z,17.50
2017-09-29T06:39:07.151Z,17.50
2017-09-29T06:41:36.451Z,17.60
2017-09-29T06:44:05.712Z,17.90
2017-09-29T06:46:35.086Z,18.10
2017-09-29T06:49:04.356Z,18.30
2017-09-29T06:51:33.678Z,18.40
2017-09-29T06:54:02.892Z,18.60
2017-09-29T06:56:32.143Z,18.70
2017-09-29T06:59:02.258Z,18.80
2017-09-29T07:01:32.274Z,18.90
2017-09-29T07:04:03.058Z,18.90
2017-09-29T07:06:32.945Z,18.90
2017-09-29T07:09:02.246Z,19.10
2017-09-29T07:11:31.523Z,19.40
2017-09-29T07:14:02.376Z,19.60
2017-09-29T07:16:32.454Z,19.60
2017-09-29T07:19:01.876Z,19.60
2017-09-29T07:21:31.135Z,19.60
2017-09-29T07:24:01.334Z,19.50
2017-09-29T07:26:32.109Z,19.40
2017-09-29T07:29:03.238Z,19.30
2017-09-29T07:31:36.318Z,19.30
2017-09-29T07:34:06.494Z,19.30
2017-09-29T07:36:35.823Z,19.40
2017-09-29T07:39:05.090Z,19.50
2017-09-29T07:41:34.438Z,19.50
2017-09-29T07:44:04.457Z,19.60
2017-09-29T07:46:33.855Z,19.60
2017-09-29T07:49:04.509Z,20.70
2017-09-29T07:51:33.787Z,20.70
2017-09-29T07:54:03.090Z,21.60
2017-09-29T07:56:32.507Z,22.20
2017-09-29T07:59:02.558Z,22.40
2017-09-29T08:01:31.943Z,22.40
2017-09-29T08:04:01.437Z,22.40
2017-09-29T08:06:31.486Z,22.20
2017-09-29T08:09:00.867Z,22.20
2017-09-29T08:11:30.918Z,22.00
2017-09-29T08:14:00.195Z,22.00
2017-09-29T08:16:29.452Z,21.60
2017-09-29T08:18:58.738Z,21.40
2017-09-29T08:21:28.173Z,21.50
2017-09-29T08:23:58.219Z,23.40
2017-09-29T08:26:27.477Z,23.30
2017-09-29T08:28:57.521Z,26.50
2017-09-29T08:31:27.558Z,27.20
2017-09-29T08:33:56.829Z,27.20
2017-09-29T08:36:26.141Z,28.10
2017-09-29T08:38:55.396Z,29.20
2017-09-29T08:41:24.642Z,28.90
2017-09-29T08:43:54.957Z,28.10
2017-09-29T08:46:25.015Z,27.90
2017-09-29T08:48:54.376Z,27.90
2017-09-29T08:51:24.422Z,27.60
2017-09-29T08:53:53.702Z,27.60
2017-09-29T08:56:22.961Z,27.60
2017-09-29T08:58:52.241Z,28.70
2017-09-29T09:01:21.501Z,30.10
2017-09-29T09:03:50.825Z,30.80
2017-09-29T09:06:20.133Z,31.10
2017-09-29T09:08:49.515Z,31.20
2017-09-29T09:11:19.569Z,29.30
2017-09-29T09:13:48.818Z,29.20
2017-09-29T09:16:18.086Z,27.80
2017-09-29T09:18:47.450Z,27.00
2017-09-29T09:21:16.745Z,26.50
2017-09-29T09:23:46.149Z,26.90
2017-09-29T09:26:16.206Z,27.70
2017-09-29T09:28:45.462Z,27.70
2017-09-29T09:31:15.098Z,27.20
2017-09-29T09:33:44.351Z,27.00
2017-09-29T09:36:13.871Z,27.70
2017-09-29T09:38:43.237Z,27.90
2017-09-29T09:41:12.715Z,28.00
2017-09-29T09:43:42.710Z,28.10
2017-09-29T09:46:12.106Z,29.30
2017-09-29T09:48:42.122Z,31.40
2017-09-29T09:51:12.126Z,31.30
2017-09-29T09:53:41.389Z,32.20
2017-09-29T09:56:10.673Z,32.60
2017-09-29T09:58:39.971Z,34.10
2017-09-29T10:01:09.285Z,34.90
2017-09-29T10:03:38.654Z,35.60
2017-09-29T10:06:07.920Z,36.10
2017-09-29T10:08:37.221Z,36.30
2017-09-29T10:11:06.498Z,35.70
2017-09-29T10:13:35.785Z,35.20
2017-09-29T10:16:05.036Z,33.50
2017-09-29T10:18:34.377Z,32.10
2017-09-29T10:21:04.414Z,30.60
2017-09-29T10:23:33.669Z,30.50
2017-09-29T10:26:02.959Z,30.90
2017-09-29T10:28:32.200Z,30.60
2017-09-29T10:31:01.475Z,31.30
2017-09-29T10:33:30.731Z,32.30
2017-09-29T10:35:59.969Z,32.30
2017-09-29T10:38:29.243Z,33.00
2017-09-29T10:40:58.698Z,33.10
2017-09-29T10:43:28.979Z,32.00
2017-09-29T10:45:58.321Z,31.90
2017-09-29T10:48:28.593Z,30.90
2017-09-29T10:50:58.662Z,30.90
2017-09-29T10:53:27.940Z,30.90
2017-09-29T10:55:57.267Z,30.20
2017-09-29T10:58:26.555Z,29.60
2017-09-29T11:00:57.326Z,28.90
2017-09-29T11:03:26.813Z,28.90
2017-09-29T11:05:56.069Z,28.60
2017-09-29T11:08:25.510Z,28.10
2017-09-29T11:10:55.546Z,27.60
2017-09-29T11:13:24.799Z,27.50
2017-09-29T11:15:54.054Z,27.60
2017-09-29T11:18:23.306Z,27.90
2017-09-29T11:20:52.631Z,28.40
2017-09-29T11:23:21.898Z,29.00
2017-09-29T11:25:51.151Z,29.60
2017-09-29T11:28:20.419Z,29.50
2017-09-29T11:30:49.658Z,29.60
2017-09-29T11:33:18.910Z,29.20
2017-09-29T11:35:48.194Z,28.60
2017-09-29T11:38:17.428Z,28.10
2017-09-29T11:40:46.740Z,27.50
2017-09-29T11:43:16.006Z,27.20
2017-09-29T11:45:45.274Z,27.30
2017-09-29T11:48:14.550Z,27.50
2017-09-29T11:50:44.591Z,29.90
2017-09-29T11:53:14.001Z,29.90
2017-09-29T11:55:44.229Z,30.40
2017-09-29T11:58:13.478Z,30.40
2017-09-29T12:00:42.780Z,30.40
2017-09-29T12:03:12.026Z,30.00
2017-09-29T12:05:41.286Z,29.70
2017-09-29T12:08:10.569Z,29.20
2017-09-29T12:10:39.835Z,28.50
2017-09-29T12:13:09.075Z,28.20
2017-09-29T12:15:38.349Z,28.00
2017-09-29T12:18:07.614Z,28.00
2017-09-29T12:20:36.956Z,27.80
2017-09-29T12:23:06.230Z,28.00
2017-09-29T12:25:35.652Z,27.70
2017-09-29T12:28:05.009Z,27.40
2017-09-29T12:30:35.015Z,27.20
2017-09-29T12:33:04.410Z,27.20
2017-09-29T12:35:33.661Z,27.10
2017-09-29T12:38:02.906Z,27.00
2017-09-29T12:40:32.957Z,26.90
2017-09-29T12:43:02.969Z,26.60
2017-09-29T12:45:32.214Z,26.60
2017-09-29T12:48:01.492Z,26.50
2017-09-29T12:50:30.778Z,26.40
2017-09-29T12:53:00.872Z,26.50
2017-09-29T12:55:30.137Z,26.50
2017-09-29T12:57:59.374Z,26.90
2017-09-29T13:00:28.801Z,27.00
2017-09-29T13:02:58.880Z,26.70
2017-09-29T13:05:28.218Z,26.60
2017-09-29T13:07:58.277Z,26.50
2017-09-29T13:10:27.534Z,26.50
2017-09-29T13:12:56.834Z,26.50
2017-09-29T13:15:26.055Z,26.30
2017-09-29T13:17:55.360Z,26.00
2017-09-29T13:20:25.391Z,25.60
2017-09-29T13:22:54.648Z,25.60
2017-09-29T13:25:23.893Z,25.70
2017-09-29T13:27:53.148Z,25.90
2017-09-29T13:30:22.697Z,26.10
2017-09-29T13:32:52.365Z,26.30
2017-09-29T13:35:21.642Z,26.50
2017-09-29T13:37:50.978Z,26.50
2017-09-29T13:40:20.239Z,26.60
2017-09-29T13:42:49.510Z,26.70
2017-09-29T13:45:18.785Z,26.70
2017-09-29T13:47:48.708Z,26.70
2017-09-29T13:50:18.039Z,26.90
2017-09-29T13:52:47.315Z,26.80
2017-09-29T13:55:16.546Z,26.60
2017-09-29T13:57:45.836Z,26.20
2017-09-29T14:00:15.097Z,25.90
2017-09-29T14:02:44.373Z,26.00
2017-09-29T14:05:13.620Z,26.20
2017-09-29T14:07:42.900Z,26.00
2017-09-29T14:10:13.064Z,25.50
2017-09-29T14:12:42.313Z,25.50
2017-09-29T14:15:11.599Z,25.30
2017-09-29T14:17:41.161Z,25.20
2017-09-29T14:20:10.414Z,25.10
2017-09-29T14:22:40.629Z,25.00
2017-09-29T14:25:09.897Z,24.90
2017-09-29T14:27:39.179Z,24.70
2017-09-29T14:30:09.926Z,24.20
2017-09-29T14:32:39.201Z,24.20
2017-09-29T14:35:08.460Z,24.00
2017-09-29T14:37:37.724Z,23.90
2017-09-29T14:40:07.033Z,23.70
2017-09-29T14:42:36.274Z,23.70
2017-09-29T14:45:05.562Z,23.60
2017-09-29T14:47:35.534Z,23.60
2017-09-29T14:50:04.772Z,23.60
2017-09-29T14:52:34.114Z,23.50
2017-09-29T14:55:03.374Z,23.50
2017-09-29T14:57:32.672Z,23.50
2017-09-29T15:00:01.938Z,23.50
2017-09-29T15:02:31.188Z,23.60
2017-09-29T15:05:00.454Z,23.50
2017-09-29T15:07:29.742Z,23.40
2017-09-29T15:09:59.807Z,23.40
2017-09-29T15:12:29.041Z,23.30
2017-09-29T15:14:59.094Z,23.10
2017-09-29T15:17:28.346Z,23.10
2017-09-29T15:19:57.606Z,23.10
2017-09-29T15:22:26.862Z,23.00
2017-09-29T15:24:56.909Z,22.80
2017-09-29T15:27:26.164Z,22.70
2017-09-29T15:29:56.196Z,22.50
2017-09-29T15:32:25.449Z,22.50
2017-09-29T15:34:54.693Z,22.30
2017-09-29T15:37:24.722Z,22.10
2017-09-29T15:39:54.768Z,22.00
2017-09-29T15:42:24.164Z,22.00
2017-09-29T15:44:54.192Z,21.80
2017-09-29T15:47:23.568Z,21.80
2017-09-29T15:49:53.714Z,21.80
2017-09-29T15:52:22.978Z,21.80
2017-09-29T15:54:52.378Z,21.70
2017-09-29T15:57:22.600Z,21.40
2017-09-29T15:59:51.850Z,21.50
2017-09-29T16:02:21.109Z,21.30
2017-09-29T16:04:50.511Z,21.30
2017-09-29T16:07:19.770Z,21.30
2017-09-29T16:09:49.034Z,21.10
2017-09-29T16:12:18.416Z,21.00
2017-09-29T16:14:47.696Z,21.00
2017-09-29T16:17:16.948Z,20.90
2017-09-29T16:19:46.249Z,20.80
2017-09-29T16:22:16.223Z,20.50
2017-09-29T16:24:45.506Z,20.50
2017-09-29T16:27:14.778Z,20.40
2017-09-29T16:29:44.007Z,20.30
2017-09-29T16:32:13.282Z,20.20
2017-09-29T16:34:42.582Z,20.20
2017-09-29T16:37:12.178Z,20.00
2017-09-29T16:39:41.416Z,20.00
2017-09-29T16:42:10.850Z,19.90
2017-09-29T16:44:40.108Z,19.90
2017-09-29T16:47:09.367Z,19.80
2017-09-29T16:49:39.360Z,19.80
2017-09-29T16:52:08.696Z,19.70
2017-09-29T16:54:38.789Z,19.50
2017-09-29T16:57:08.042Z,19.50
2017-09-29T16:59:37.289Z,19.40
2017-09-29T17:02:06.565Z,19.30
2017-09-29T17:04:36.013Z,19.20
2017-09-29T17:07:05.262Z,19.10
2017-09-29T17:09:34.733Z,19.00
2017-09-29T17:12:04.015Z,18.90
2017-09-29T17:14:34.062Z,18.80
2017-09-29T17:17:03.402Z,18.80
2017-09-29T17:19:32.736Z,18.70
2017-09-29T17:22:01.991Z,18.60
2017-09-29T17:24:31.283Z,18.60
2017-09-29T17:27:00.527Z,18.50
2017-09-29T17:29:29.845Z,18.50
2017-09-29T17:31:59.948Z,18.30
2017-09-29T17:34:29.289Z,18.30
2017-09-29T17:36:58.550Z,18.30
2017-09-29T17:39:27.876Z,18.30
2017-09-29T17:41:57.329Z,18.30
2017-09-29T17:44:26.675Z,18.20
2017-09-29T17:46:56.720Z,18.30
2017-09-29T17:49:25.976Z,18.20
2017-09-29T17:51:55.231Z,18.30
2017-09-29T17:54:25.698Z,18.30
2017-09-29T17:56:55.062Z,18.20
2017-09-29T17:59:24.333Z,18.20
2017-09-29T18:01:54.348Z,18.10
2017-09-29T18:04:23.617Z,18.10
2017-09-29T18:06:53.048Z,18.10
2017-09-29T18:09:23.066Z,18.10
2017-09-29T18:11:52.327Z,18.10
2017-09-29T18:14:21.573Z,18.10
2017-09-29T18:16:51.643Z,18.10
2017-09-29T18:19:21.747Z,18.10
2017-09-29T18:21:51.014Z,18.10
2017-09-29T18:24:20.842Z,18.10
2017-09-29T18:26:50.844Z,18.10
2017-09-29T18:29:20.102Z,18.10
2017-09-29T18:31:49.343Z,18.10
2017-09-29T18:34:19.758Z,18.00
2017-09-29T18:36:49.681Z,18.00
2017-09-29T18:39:20.237Z,17.90
2017-09-29T18:41:50.104Z,17.90
2017-09-29T18:44:19.613Z,17.90
2017-09-29T18:46:51.091Z,17.90
2017-09-29T18:49:21.102Z,17.80
2017-09-29T18:51:50.370Z,17.80
2017-09-29T18:54:20.115Z,17.80
2017-09-29T18:56:49.791Z,17.90
2017-09-29T18:59:19.094Z,17.90
2017-09-29T19:01:48.865Z,17.80
2017-09-29T19:04:18.577Z,17.80
2017-09-29T19:06:47.960Z,17.80
2017-09-29T19:09:18.007Z,17.70
2017-09-29T19:11:47.251Z,17.70
2017-09-29T19:14:16.678Z,17.80
2017-09-29T19:16:46.706Z,17.90
2017-09-29T19:19:15.982Z,17.90
2017-09-29T19:21:46.036Z,17.90
2017-09-29T19:24:16.081Z,17.90
2017-09-29T19:26:45.451Z,17.90
2017-09-29T19:29:15.593Z,17.80
2017-09-29T19:31:44.878Z,17.80
2017-09-29T19:34:14.150Z,17.80
2017-09-29T19:36:43.637Z,17.70
2017-09-29T19:39:12.912Z,17.70
2017-09-29T19:41:42.530Z,17.70
2017-09-29T19:44:11.802Z,17.70
2017-09-29T19:46:41.557Z,17.60
2017-09-29T19:49:10.832Z,17.60
2017-09-29T19:51:40.398Z,17.60
2017-09-29T19:54:10.046Z,17.50
2017-09-29T19:56:39.973Z,17.50
2017-09-29T19:59:09.766Z,17.50
2017-09-29T20:01:39.383Z,17.50
2017-09-29T20:04:08.908Z,17.50
2017-09-29T20:06:38.204Z,17.40
2017-09-29T20:09:07.584Z,17.50
2017-09-29T20:11:36.851Z,17.50
2017-09-29T20:14:06.271Z,17.50
2017-09-29T20:16:36.438Z,17.50
2017-09-29T20:19:05.761Z,17.50
2017-09-29T20:21:35.084Z,17.60
2017-09-29T20:24:04.358Z,17.60
2017-09-29T20:26:33.638Z,17.60
2017-09-29T20:29:02.910Z,17.60
2017-09-29T20:31:33.014Z,17.50
2017-09-29T20:34:03.074Z,17.50
2017-09-29T20:36:32.352Z,17.50
2017-09-29T20:39:01.675Z,17.40
2017-09-29T20:41:30.918Z,17.40
2017-09-29T20:44:00.186Z,17.30
2017-09-29T20:46:29.481Z,17.30
2017-09-29T20:48:58.765Z,17.30
2017-09-29T20:51:28.032Z,17.30
2017-09-29T20:53:57.259Z,17.30
2017-09-29T20:56:26.642Z,17.30
2017-09-29T20:58:55.914Z,17.20
2017-09-29T21:01:25.206Z,17.20
2017-09-29T21:03:54.477Z,17.20
2017-09-29T21:06:23.859Z,17.30
2017-09-29T21:08:53.894Z,17.30
2017-09-29T21:11:23.270Z,17.30
2017-09-29T21:13:52.526Z,17.30
2017-09-29T21:16:21.780Z,17.20
2017-09-29T21:18:51.170Z,17.30
2017-09-29T21:21:20.410Z,17.30
2017-09-29T21:23:49.670Z,17.20
2017-09-29T21:26:18.941Z,17.10
2017-09-29T21:28:48.230Z,17.10
2017-09-29T21:31:17.514Z,17.00
2017-09-29T21:33:46.789Z,17.00
2017-09-29T21:36:16.834Z,16.80
2017-09-29T21:38:46.194Z,16.80
2017-09-29T21:41:15.441Z,16.70
2017-09-29T21:43:44.710Z,16.70
2017-09-29T21:46:13.978Z,16.70
2017-09-29T21:48:44.030Z,16.70
2017-09-29T21:51:14.069Z,16.60
2017-09-29T21:53:43.354Z,16.60
2017-09-29T21:56:12.599Z,16.60
2017-09-29T21:58:41.886Z,16.60
2017-09-29T22:01:11.139Z,16.60
2017-09-29T22:03:40.381Z,16.70
2017-09-29T22:06:09.754Z,16.70
2017-09-29T22:08:39.762Z,16.70
2017-09-29T22:11:09.169Z,16.70
2017-09-29T22:13:38.410Z,16.70
2017-09-29T22:16:07.701Z,16.70
2017-09-29T22:18:36.945Z,16.70
2017-09-29T22:21:06.218Z,16.70
2017-09-29T22:23:35.466Z,16.60
2017-09-29T22:26:04.709Z,16.60
2017-09-29T22:28:33.969Z,16.50
2017-09-29T22:31:03.991Z,16.40
2017-09-29T22:33:34.043Z,16.40
2017-09-29T22:36:03.290Z,16.40
2017-09-29T22:38:32.566Z,16.40
2017-09-29T22:41:01.823Z,16.40
2017-09-29T22:43:31.861Z,16.30
2017-09-29T22:46:01.129Z,16.20
2017-09-29T22:48:30.373Z,16.20
2017-09-29T22:50:59.637Z,16.20
2017-09-29T22:53:29.657Z,16.00
2017-09-29T22:55:58.906Z,16.00
2017-09-29T22:58:28.156Z,16.00
2017-09-29T23:00:58.171Z,16.00
2017-09-29T23:03:27.444Z,15.90
2017-09-29T23:05:56.865Z,15.90
2017-09-29T23:08:26.931Z,15.90
2017-09-29T23:10:56.172Z,15.90
2017-09-29T23:13:25.538Z,15.90
2017-09-29T23:15:54.805Z,15.90
2017-09-29T23:18:24.054Z,15.90
2017-09-29T23:20:53.334Z,16.00
2017-09-29T23:23:23.569Z,16.00
2017-09-29T23:25:52.950Z,16.00
2017-09-29T23:28:23.041Z,16.00
2017-09-29T23:30:53.096Z,15.90
2017-09-29T23:33:22.391Z,15.90
2017-09-29T23:35:51.750Z,15.90
2017-09-29T23:38:20.988Z,15.90
2017-09-29T23:40:50.263Z,15.90
2017-09-29T23:43:19.510Z,15.80
2017-09-29T23:45:48.820Z,15.80
2017-09-29T23:48:18.094Z,15.80
2017-09-29T23:50:48.123Z,15.70
2017-09-29T23:53:17.357Z,15.70
2017-09-29T23:55:46.621Z,15.70
2017-09-29T23:58:15.920Z,15.70
